South Burlington, Vermont
Current Conditions -  °F | °C
As of 10:54 AM on Saturday 25 Oct 2014 (Local Time) from KBTV Reporting Station
Few Clouds Few Clouds  
Wind Chill: 51°   Ceiling: Unl
Heat Index: 51°   Visibility: 10mi
Dew Point: 42°   Wind: 10mph
Humidity: 71%   Direction: 200°SSW
Pressure: 29.74"   Gusts: NA
Location:  44.45°N, 73.18°W
Report Text: KBTV 251454Z 20009KT 10SM FEW150 11/06 A2974 RMK AO2 SLP072 T01060056 58013
Loading
Personal Weather Stations






























Interactive Weather Map
Tropical Storm Tracking
New forecast layout! Learn more

10-Day Weather Forecast

Advertisements
Track Severe Weather on mobile